Time;durP1;ratioP1;P1;durP2;ratioP2;P2;SDS_P1;SDS_P2;PMS_P1;PMS_P2;Temp;Humidity;BMP_temperature;BMP_pressure;BME280_temperature;BME280_humidity;BME280_pressure;Samples;Min_cycle;Max_cycle;Signal;HPM_P1;HPM_P2
2021/06/25 00:01:40;;;;;;;8.95;4.17;;;;;;;23.57;71.86;100225.69;1742934;80;21101;-83
2021/06/25 00:04:06;;;;;;;13.68;4.25;;;;;;;23.60;71.41;100226.12;1749211;80;21017;-83
2021/06/25 00:06:33;;;;;;;15.35;4.55;;;;;;;23.66;70.96;100225.81;1693777;82;21800;-83
2021/06/25 00:09:00;;;;;;;12.28;4.42;;;;;;;23.72;70.51;100230.86;1745695;78;20993;-83
2021/06/25 00:11:26;;;;;;;14.90;4.58;;;;;;;23.77;70.34;100231.90;1740397;80;20958;-83
2021/06/25 00:13:54;;;;;;;8.60;4.20;;;;;;;23.79;70.14;100227.64;1728324;80;20972;-83
2021/06/25 00:16:22;;;;;;;10.38;4.60;;;;;;;23.79;70.11;100225.77;1750356;78;21000;-85
2021/06/25 00:18:48;;;;;;;13.55;5.15;;;;;;;23.81;70.03;100221.50;1724593;81;22282;-85
2021/06/25 00:21:15;;;;;;;16.07;4.37;;;;;;;23.80;70.23;100215.28;1711529;82;21009;-85
2021/06/25 00:23:43;;;;;;;14.43;4.47;;;;;;;23.76;70.29;100205.97;1739678;80;21122;-84
2021/06/25 00:26:09;;;;;;;8.80;4.08;;;;;;;23.72;70.30;100202.02;1733936;80;21310;-82
2021/06/25 00:28:36;;;;;;;11.22;4.35;;;;;;;23.68;70.48;100196.76;1732206;80;21062;-82
2021/06/25 00:31:03;;;;;;;13.20;4.65;;;;;;;23.60;70.68;100205.06;1686069;82;22188;-83
2021/06/25 00:33:30;;;;;;;13.28;3.90;;;;;;;23.55;70.78;100200.81;1673504;83;21484;-82
2021/06/25 00:35:58;;;;;;;11.28;4.20;;;;;;;23.51;70.74;100200.38;1759262;80;21044;-80
2021/06/25 00:38:24;;;;;;;10.80;3.65;;;;;;;23.46;70.79;100199.38;1739230;80;21020;-80
2021/06/25 00:40:51;;;;;;;10.32;4.00;;;;;;;23.36;70.64;100194.41;1698392;82;21037;-82
2021/06/25 00:43:17;;;;;;;10.53;4.15;;;;;;;23.27;70.45;100195.14;1698001;83;21764;-82
2021/06/25 00:45:44;;;;;;;13.80;4.12;;;;;;;23.20;70.52;100197.01;1716447;81;21046;-81
2021/06/25 00:48:10;;;;;;;11.08;4.45;;;;;;;23.13;70.82;100193.48;1695174;83;21437;-82
2021/06/25 00:50:37;;;;;;;12.63;4.67;;;;;;;23.10;70.83;100196.60;1744777;80;21518;-82
2021/06/25 00:53:04;;;;;;;11.53;3.85;;;;;;;23.09;70.70;100196.30;1761707;79;20957;-82
2021/06/25 00:55:43;;;;;;;9.68;4.30;;;;;;;23.09;70.56;100193.08;1741507;79;22788;-83
2021/06/25 00:58:19;;;;;;;13.80;4.35;;;;;;;23.07;70.49;100188.42;1701598;82;21020;-83
2021/06/25 01:00:46;;;;;;;17.70;5.03;;;;;;;23.03;70.57;100186.34;1725931;80;21409;-83
2021/06/25 01:03:13;;;;;;;12.25;4.33;;;;;;;22.98;70.64;100178.89;1729933;80;21453;-82
2021/06/25 01:05:41;;;;;;;13.48;4.47;;;;;;;22.92;70.85;100177.02;1706571;81;20936;-81
2021/06/25 01:08:08;;;;;;;9.08;4.03;;;;;;;22.79;71.06;100172.43;1724073;81;21871;-83
2021/06/25 01:10:39;;;;;;;15.55;4.80;;;;;;;22.68;71.06;100169.01;1737416;79;21071;-81
2021/06/25 01:13:08;;;;;;;15.68;5.00;;;;;;;22.61;71.08;100178.93;1751091;80;21064;-81
2021/06/25 01:15:35;;;;;;;11.95;4.67;;;;;;;22.57;71.08;100173.11;1748913;80;21521;-82
2021/06/25 01:18:02;;;;;;;12.18;4.40;;;;;;;22.56;71.15;100165.24;1744295;80;21031;-82
2021/06/25 01:20:31;;;;;;;9.75;4.65;;;;;;;22.48;71.22;100168.12;1712959;81;21825;-79
2021/06/25 01:22:57;;;;;;;12.75;5.00;;;;;;;22.46;71.34;100180.44;1752770;79;20944;-79
2021/06/25 01:25:29;;;;;;;14.10;4.35;;;;;;;22.44;71.47;100176.30;1694649;82;21111;-82
2021/06/25 01:28:06;;;;;;;19.23;5.15;;;;;;;22.41;71.55;100176.20;1755022;79;21101;-81
2021/06/25 01:30:38;;;;;;;12.18;4.67;;;;;;;22.40;71.59;100175.06;1747697;80;21004;-81
2021/06/25 01:33:08;;;;;;;10.93;4.87;;;;;;;22.38;71.66;100173.07;1747725;78;21773;-82
2021/06/25 01:35:35;;;;;;;10.40;4.58;;;;;;;22.33;71.77;100180.94;1696988;83;20855;-81
2021/06/25 01:38:03;;;;;;;14.63;5.08;;;;;;;22.30;71.81;100180.84;1708056;83;21103;-82
2021/06/25 01:40:29;;;;;;;16.45;5.15;;;;;;;22.26;71.92;100179.05;1756669;80;21056;-82
2021/06/25 01:42:57;;;;;;;14.20;5.00;;;;;;;22.24;72.05;100180.29;1748988;80;21086;-83
2021/06/25 01:45:24;;;;;;;12.30;4.53;;;;;;;22.23;72.13;100184.02;1701717;80;21740;-82
2021/06/25 01:47:52;;;;;;;16.37;4.80;;;;;;;22.20;72.24;100187.95;1766226;78;21325;-82
2021/06/25 01:50:20;;;;;;;10.88;4.37;;;;;;;;;;1741480;80;21009;-82
2021/06/25 01:53:00;;;;;;;11.35;4.65;;;;;;;21.98;72.79;100180.98;1723661;80;21466;-80
2021/06/25 01:55:29;;;;;;;12.70;4.85;;;;;;;21.90;73.19;100179.29;1751617;80;21099;-80
2021/06/25 01:57:55;;;;;;;13.90;5.00;;;;;;;21.88;73.53;100185.91;1733436;80;21828;-81
2021/06/25 02:00:22;;;;;;;14.28;4.72;;;;;;;21.91;73.75;100192.25;1729587;80;20985;-81
2021/06/25 02:02:49;;;;;;;10.98;4.75;;;;;;;21.98;73.72;100186.36;1749929;80;21003;-80
2021/06/25 02:05:16;;;;;;;13.28;4.90;;;;;;;21.99;73.82;100178.09;1754663;80;21045;-81
2021/06/25 02:07:42;;;;;;;12.85;5.10;;;;;;;21.95;73.97;100176.02;1700363;82;21021;-80
2021/06/25 02:10:11;;;;;;;9.65;4.90;;;;;;;21.87;74.12;100178.36;1737687;80;21827;-81
2021/06/25 02:12:39;;;;;;;14.55;5.37;;;;;;;21.85;74.30;100182.28;1758047;80;21225;-81
2021/06/25 02:15:08;;;;;;;11.40;4.75;;;;;;;21.82;74.50;100176.80;1745017;80;21487;-81
2021/06/25 02:17:35;;;;;;;12.63;5.08;;;;;;;21.83;74.59;100181.14;1734405;80;21629;-80
2021/06/25 02:20:05;;;;;;;12.13;5.28;;;;;;;21.84;74.70;100176.59;1747861;79;21044;-80
2021/06/25 02:22:31;;;;;;;14.78;5.37;;;;;;;21.85;74.78;100175.56;1671217;84;21836;-81
2021/06/25 02:24:58;;;;;;;11.08;5.20;;;;;;;21.88;74.79;100172.46;1725273;80;21007;-80
2021/06/25 02:27:25;;;;;;;13.35;5.30;;;;;;;21.90;74.80;100168.53;1760900;79;20956;-80
2021/06/25 02:29:51;;;;;;;10.15;5.00;;;;;;;21.90;74.87;100175.77;1760101;78;20997;-80
2021/06/25 02:32:17;;;;;;;16.07;5.30;;;;;;;21.88;74.97;100167.91;1712565;82;21052;-80
2021/06/25 02:34:44;;;;;;;13.72;5.25;;;;;;;21.88;75.11;100160.36;1674639;83;21807;-80
2021/06/25 02:37:10;;;;;;;16.65;5.28;;;;;;;21.87;75.23;100167.59;1743020;80;21101;-80
2021/06/25 02:39:38;;;;;;;14.80;5.50;;;;;;;21.92;75.07;100166.50;1726604;80;21154;-80
2021/06/25 02:42:05;;;;;;;14.68;5.22;;;;;;;21.99;74.88;100171.36;1728066;81;20997;-81
2021/06/25 02:44:31;;;;;;;13.40;5.28;;;;;;;22.09;74.58;100171.02;1745630;80;21677;-80
2021/06/25 02:46:58;;;;;;;12.65;5.37;;;;;;;22.18;74.41;100179.23;1719112;80;22613;-82
2021/06/25 02:49:24;;;;;;;16.02;4.87;;;;;;;22.19;74.56;100175.50;1723752;81;21088;-82
2021/06/25 02:51:51;;;;;;;16.57;6.00;;;;;;;22.21;74.61;100173.98;1744915;81;21043;-81
2021/06/25 02:54:17;;;;;;;11.28;5.12;;;;;;;22.24;74.57;100179.77;1726257;80;21099;-82
2021/06/25 02:56:44;;;;;;;14.75;5.20;;;;;;;22.30;74.47;100169.25;1736352;80;21087;-82
2021/06/25 02:59:12;;;;;;;14.33;5.97;;;;;;;22.33;74.47;100168.83;1756624;80;21752;-80
2021/06/25 03:01:39;;;;;;;13.50;5.67;;;;;;;22.33;74.50;100162.93;1707418;82;21405;-80
2021/06/25 03:04:05;;;;;;;16.93;5.50;;;;;;;22.35;74.53;100163.55;1726252;80;20993;-80
2021/06/25 03:06:33;;;;;;;19.85;5.53;;;;;;;22.39;74.53;100163.47;1735515;80;21012;-81
2021/06/25 03:09:00;;;;;;;12.78;5.42;;;;;;;22.44;74.55;100157.47;1725520;80;21039;-81
2021/06/25 03:11:26;;;;;;;12.43;5.60;;;;;;;22.45;74.65;100157.77;1747040;80;21776;-81
2021/06/25 03:13:53;;;;;;;11.78;4.80;;;;;;;22.45;74.66;100150.53;1711351;82;21491;-81
2021/06/25 03:16:19;;;;;;;12.07;5.55;;;;;;;22.48;74.67;100149.28;1670734;83;20966;-82
2021/06/25 03:18:47;;;;;;;14.25;5.40;;;;;;;22.50;74.68;100144.55;1680661;82;21091;-81
2021/06/25 03:21:17;;;;;;;11.40;4.70;;;;;;;22.53;74.75;100148.17;1703156;82;21008;-80
2021/06/25 03:23:44;;;;;;;15.38;5.25;;;;;;;22.53;74.68;100154.38;1732467;80;21875;-81
2021/06/25 03:26:11;;;;;;;14.58;5.17;;;;;;;22.54;74.82;100151.17;1735572;81;21189;-81
2021/06/25 03:28:37;;;;;;;9.58;5.22;;;;;;;22.56;74.81;100154.48;1717936;81;21087;-80
2021/06/25 03:31:03;;;;;;;14.58;5.10;;;;;;;22.62;74.87;100156.36;1746988;80;21029;-80
2021/06/25 03:33:30;;;;;;;14.55;5.37;;;;;;;22.69;74.78;100155.03;1766314;78;21033;-81
2021/06/25 03:35:57;;;;;;;17.02;5.28;;;;;;;22.76;74.75;100150.45;1683304;83;21816;-81
2021/06/25 03:38:23;;;;;;;13.65;5.70;;;;;;;22.84;74.67;100152.98;1768998;78;21028;-81
2021/06/25 03:40:49;;;;;;;13.38;4.72;;;;;;;22.92;74.62;100155.47;1742792;81;21013;-81
2021/06/25 03:43:16;;;;;;;15.38;5.20;;;;;;;22.99;74.48;100156.83;1733417;81;21103;-81
2021/06/25 03:45:43;;;;;;;10.80;4.92;;;;;;;23.04;74.35;100156.49;1714596;82;21021;-81
2021/06/25 03:48:10;;;;;;;12.88;4.72;;;;;;;23.10;74.26;100148.94;1724743;82;22045;-80
2021/06/25 03:50:37;;;;;;;15.43;5.20;;;;;;;23.17;74.37;100141.38;1712511;82;21405;-81
2021/06/25 03:53:03;;;;;;;20.68;5.47;;;;;;;23.20;74.47;100139.08;1699930;82;20972;-82
2021/06/25 03:55:30;;;;;;;16.30;5.33;;;;;;;23.23;74.58;100135.13;1727542;81;21535;-82
2021/06/25 03:57:57;;;;;;;12.85;5.22;;;;;;;23.26;74.75;100133.35;1719142;81;20997;-82
2021/06/25 04:00:23;;;;;;;12.28;5.40;;;;;;;23.27;74.90;100133.16;1741268;79;21818;-82
2021/06/25 04:02:50;;;;;;;16.50;4.65;;;;;;;23.29;75.08;100128.91;1747533;80;21027;-79
2021/06/25 04:05:16;;;;;;;14.58;4.97;;;;;;;23.32;74.72;100132.00;1724076;81;21568;-80
2021/06/25 04:07:43;;;;;;;17.10;5.00;;;;;;;23.39;74.26;100137.38;1718779;81;21016;-77
2021/06/25 04:10:11;;;;;;;14.85;5.00;;;;;;;23.48;74.01;100137.47;1752409;80;21004;-76
2021/06/25 04:12:39;;;;;;;10.20;4.92;;;;;;;23.58;73.62;100137.02;1725347;81;22490;-78
2021/06/25 04:15:07;;;;;;;11.93;4.75;;;;;;;23.68;73.00;100140.13;1701161;82;21517;-78
2021/06/25 04:17:34;;;;;;;14.98;5.37;;;;;;;23.78;72.53;100137.81;1727844;80;21060;-82
2021/06/25 04:20:01;;;;;;;10.32;4.97;;;;;;;23.84;72.67;100133.45;1750825;80;21469;-80
2021/06/25 04:22:27;;;;;;;12.85;5.05;;;;;;;23.86;72.92;100130.00;1717150;81;20944;-80
2021/06/25 04:24:54;;;;;;;13.18;4.70;;;;;;;23.90;73.05;100140.66;1714590;82;21848;-81
2021/06/25 04:27:20;;;;;;;17.50;4.72;;;;;;;23.96;72.82;100147.38;1720077;80;21044;-81
2021/06/25 04:29:47;;;;;;;13.85;5.08;;;;;;;24.00;72.15;100143.72;1734226;80;21185;-81
2021/06/25 04:32:16;;;;;;;14.05;4.58;;;;;;;24.05;72.01;100142.57;1702499;82;21480;-81
2021/06/25 04:34:42;;;;;;;13.83;5.28;;;;;;;24.10;71.85;100140.56;1747148;80;21055;-83
2021/06/25 04:37:09;;;;;;;13.93;4.92;;;;;;;24.15;72.01;100142.10;1703910;82;21864;-76
2021/06/25 04:39:35;;;;;;;8.68;4.35;;;;;;;24.21;71.90;100141.22;1726486;80;21053;-78
2021/06/25 04:42:03;;;;;;;13.38;4.15;;;;;;;24.27;71.18;100137.67;1752729;80;21544;-75
2021/06/25 04:44:30;;;;;;;14.38;4.53;;;;;;;24.37;70.29;100139.92;1765650;79;21381;-81
2021/06/25 04:46:56;;;;;;;16.32;4.80;;;;;;;24.47;69.76;100138.92;1748449;80;21391;-82
2021/06/25 04:49:23;;;;;;;15.30;4.92;;;;;;;24.57;69.26;100138.44;1697973;82;21816;-76
2021/06/25 04:51:50;;;;;;;13.15;4.80;;;;;;;24.65;68.96;100133.59;1681243;83;21028;-78
2021/06/25 04:54:16;;;;;;;12.93;4.67;;;;;;;24.75;68.09;100133.93;1741710;80;20956;-79
2021/06/25 04:56:43;;;;;;;15.28;4.83;;;;;;;24.83;67.29;100128.26;1724119;81;21033;-80
2021/06/25 04:59:09;;;;;;;17.60;4.87;;;;;;;24.90;67.18;100125.51;1730244;81;21603;-82
2021/06/25 05:01:35;;;;;;;17.35;4.95;;;;;;;24.96;66.86;100127.30;1738102;80;21804;-77
2021/06/25 05:04:02;;;;;;;14.68;5.00;;;;;;;25.05;67.13;100124.66;1744365;80;21072;-82
2021/06/25 05:06:29;;;;;;;20.52;5.20;;;;;;;25.13;66.33;100130.83;1711180;82;21171;-81
2021/06/25 05:08:56;;;;;;;12.28;5.12;;;;;;;25.20;65.81;100133.78;1749517;80;21303;-83
2021/06/25 05:11:23;;;;;;;15.70;5.10;;;;;;;25.28;65.56;100132.11;1755645;80;21126;-83
2021/06/25 05:13:49;;;;;;;18.07;5.50;;;;;;;25.37;65.25;100134.00;1777066;79;21872;-83
2021/06/25 05:16:16;;;;;;;15.35;5.40;;;;;;;25.45;65.05;100136.94;1760170;79;21073;-81
2021/06/25 05:18:42;;;;;;;16.17;5.28;;;;;;;25.52;64.50;100133.12;1746767;80;21051;-82
2021/06/25 05:21:08;;;;;;;18.98;5.53;;;;;;;25.59;64.66;100131.17;1705554;82;21072;-80
2021/06/25 05:23:35;;;;;;;17.52;5.00;;;;;;;25.68;65.11;100130.34;1741534;80;20973;-81
2021/06/25 05:26:02;;;;;;;14.73;4.92;;;;;;;25.76;64.74;100137.33;1708881;82;21791;-80
2021/06/25 05:28:28;;;;;;;14.87;5.03;;;;;;;25.85;64.02;100135.97;1748263;80;21052;-81
2021/06/25 05:30:55;;;;;;;9.35;4.30;;;;;;;25.91;62.92;100139.13;1713236;82;21096;-80
2021/06/25 05:33:22;;;;;;;14.28;4.33;;;;;;;26.00;62.98;100139.65;1728780;81;20979;-80
2021/06/25 05:35:48;;;;;;;17.73;5.20;;;;;;;26.08;62.89;100141.52;1732067;81;21060;-81
2021/06/25 05:38:16;;;;;;;12.60;4.95;;;;;;;26.12;61.76;100144.58;1705239;82;22417;-80
2021/06/25 05:40:44;;;;;;;17.25;5.00;;;;;;;26.12;61.54;100141.87;1706837;82;21043;-79
2021/06/25 05:43:11;;;;;;;14.07;4.70;;;;;;;26.17;60.98;100136.61;1722357;81;21081;-82
2021/06/25 05:45:38;;;;;;;17.77;4.92;;;;;;;26.23;61.09;100143.27;1707588;80;21011;-81
2021/06/25 05:48:06;;;;;;;14.68;5.00;;;;;;;26.32;60.32;100138.36;1748819;80;21079;-82
2021/06/25 05:50:33;;;;;;;13.13;5.05;;;;;;;26.45;60.44;100143.62;1712125;82;21826;-83
2021/06/25 05:52:59;;;;;;;8.10;4.25;;;;;;;26.59;59.96;100142.88;1746947;80;21040;-79
2021/06/25 05:55:26;;;;;;;10.80;4.70;;;;;;;26.72;59.38;100139.95;1713709;82;21036;-82
2021/06/25 05:57:53;;;;;;;14.13;4.80;;;;;;;26.87;59.47;100138.69;1705882;82;21252;-81
2021/06/25 06:00:19;;;;;;;15.25;4.83;;;;;;;27.01;58.66;100138.74;1751569;80;21071;-81
2021/06/25 06:02:46;;;;;;;15.40;4.45;;;;;;;27.08;57.84;100138.14;1731802;81;21770;-80
2021/06/25 06:05:13;;;;;;;20.85;4.65;;;;;;;27.16;58.08;100139.14;1725687;81;21581;-80
2021/06/25 06:07:39;;;;;;;16.27;5.15;;;;;;;27.23;58.25;100144.45;1724405;82;21036;-81
2021/06/25 06:10:07;;;;;;;12.73;4.47;;;;;;;27.34;58.42;100144.44;1715131;82;21437;-80
2021/06/25 06:12:33;;;;;;;14.03;4.92;;;;;;;27.45;57.87;100144.66;1721467;81;21569;-82
2021/06/25 06:15:00;;;;;;;15.15;4.45;;;;;;;27.54;57.67;100146.77;1735717;80;21805;-77
2021/06/25 06:17:26;;;;;;;11.88;4.87;;;;;;;27.66;57.94;100146.78;1711973;82;21062;-76
2021/06/25 06:19:53;;;;;;;12.58;5.00;;;;;;;27.79;57.07;100142.95;1748785;80;21426;-86
2021/06/25 06:33:23;;;;;;;13.93;5.03;;;;;;;28.27;55.51;100136.28;1698856;82;21029;-78
2021/06/25 06:35:50;;;;;;;12.25;4.90;;;;;;;28.34;55.15;100140.53;1662031;83;21064;-77
2021/06/25 06:38:17;;;;;;;15.00;5.00;;;;;;;28.43;55.57;100151.30;1715890;81;21518;-76
2021/06/25 06:40:44;;;;;;;12.43;4.97;;;;;;;28.58;55.76;100149.39;1749077;80;21809;-81
2021/06/25 06:43:10;;;;;;;11.18;4.97;;;;;;;28.75;55.58;100151.56;1717224;82;21047;-79
2021/06/25 06:45:38;;;;;;;12.65;5.12;;;;;;;28.86;54.59;100150.41;1710747;82;21119;-77
2021/06/25 06:48:06;;;;;;;12.68;4.90;;;;;;;28.89;53.80;100148.58;1716462;82;21091;-77
2021/06/25 06:50:33;;;;;;;9.43;5.28;;;;;;;28.91;53.73;100150.50;1683468;83;21510;-78
2021/06/25 06:52:59;;;;;;;18.23;5.15;;;;;;;28.87;53.65;100150.16;1735742;81;21784;-77
2021/06/25 06:55:26;;;;;;;13.68;5.20;;;;;;;28.87;54.24;100151.52;1714893;82;21009;-77
2021/06/25 06:57:53;;;;;;;11.28;5.08;;;;;;;28.94;54.97;100151.36;1727674;81;21044;-76
2021/06/25 07:00:21;;;;;;;9.80;4.37;;;;;;;29.04;54.63;100152.34;1734675;82;21299;-80
2021/06/25 07:02:47;;;;;;;14.35;4.83;;;;;;;29.14;55.01;100150.84;1754053;80;21086;-75
2021/06/25 07:05:15;;;;;;;30.95;6.85;;;;;;;29.28;54.55;100149.44;1749319;80;22347;-78
2021/06/25 07:07:42;;;;;;;20.00;6.62;;;;;;;29.42;53.11;100153.97;1701096;82;21501;-78
2021/06/25 07:10:10;;;;;;;42.13;9.55;;;;;;;29.52;51.98;100152.23;1711046;82;21081;-80
2021/06/25 07:12:39;;;;;;;22.42;7.12;;;;;;;29.61;51.56;100156.71;1747910;80;20985;-78
2021/06/25 07:15:08;;;;;;;21.35;6.10;;;;;;;29.66;50.24;100154.61;1708487;82;21068;-80
2021/06/25 07:17:35;;;;;;;24.18;6.30;;;;;;;29.62;50.56;100159.72;1713915;82;21991;-79
2021/06/25 07:20:04;;;;;;;22.27;6.65;;;;;;;29.58;50.30;100157.23;1745826;80;21047;-79
2021/06/25 07:22:30;;;;;;;24.07;6.28;;;;;;;29.57;50.01;100161.02;1729265;81;21111;-74
2021/06/25 07:24:57;;;;;;;20.00;6.40;;;;;;;29.66;50.69;100166.86;1731274;80;21047;-77
2021/06/25 07:27:23;;;;;;;19.17;5.03;;;;;;;29.77;50.96;100171.35;1740132;80;21035;-79
2021/06/25 07:29:50;;;;;;;13.62;5.60;;;;;;;29.91;50.83;100174.78;1740458;80;22224;-76
2021/06/25 07:32:16;;;;;;;10.03;4.87;;;;;;;30.08;51.01;100173.39;1745986;80;21035;-79
2021/06/25 07:34:43;;;;;;;13.58;5.47;;;;;;;30.20;50.54;100164.53;1740216;80;20965;-80
2021/06/25 07:37:09;;;;;;;15.23;4.53;;;;;;;30.42;50.40;100159.59;1733452;80;20973;-78
2021/06/25 07:39:36;;;;;;;10.70;4.58;;;;;;;30.42;50.40;100159.59;1704502;82;21008;-79
2021/06/25 07:42:03;;;;;;;10.93;4.78;;;;;;;30.36;48.67;100163.34;1713201;82;21790;-80
2021/06/25 07:44:29;;;;;;;7.83;4.15;;;;;;;30.41;49.52;100165.59;1750395;80;20957;-76
2021/06/25 07:46:56;;;;;;;12.60;4.67;;;;;;;30.52;49.80;100164.31;1751617;80;21459;-75
2021/06/25 07:49:22;;;;;;;11.35;4.15;;;;;;;30.52;49.80;100164.31;1745207;79;21008;-77
2021/06/25 07:51:49;;;;;;;11.28;4.40;;;;;;;30.65;48.93;100173.45;1742657;80;21008;-80
2021/06/25 07:54:16;;;;;;;8.35;4.03;;;;;;;30.72;48.46;100172.71;1748084;80;21725;-81
2021/06/25 07:56:42;;;;;;;9.70;4.30;;;;;;;30.77;48.73;100164.02;1744322;80;20965;-82
2021/06/25 07:59:09;;;;;;;12.53;4.75;;;;;;;30.85;48.57;100168.17;1724084;82;20953;-78
2021/06/25 08:01:35;;;;;;;7.33;4.30;;;;;;;30.93;48.25;100166.88;1732945;82;20969;-80
2021/06/25 08:04:02;;;;;;;10.20;4.75;;;;;;;31.01;48.98;100167.77;1698547;82;20970;-81
2021/06/25 08:06:29;;;;;;;10.28;4.65;;;;;;;31.11;48.16;100167.02;1720205;81;21757;-83
2021/06/25 08:08:56;;;;;;;10.63;4.25;;;;;;;31.16;48.14;100161.03;1711359;82;21380;-81
2021/06/25 08:11:23;;;;;;;10.10;4.42;;;;;;;31.26;48.49;100152.94;1715549;80;20949;-82
2021/06/25 08:13:49;;;;;;;12.80;4.60;;;;;;;31.40;48.81;100151.12;1764035;79;21027;-80
2021/06/25 08:16:16;;;;;;;8.60;4.37;;;;;;;31.51;48.24;100156.91;1716225;82;20949;-83
2021/06/25 08:18:43;;;;;;;10.05;4.50;;;;;;;31.56;47.89;100150.95;1708892;81;21867;-82
2021/06/25 08:21:09;;;;;;;10.15;4.50;;;;;;;31.63;47.43;100140.59;1709318;82;21372;-81
2021/06/25 08:23:37;;;;;;;9.50;4.25;;;;;;;31.69;47.74;100140.62;1719219;82;21032;-81
2021/06/25 08:26:03;;;;;;;12.78;4.62;;;;;;;31.79;46.79;100134.69;1694453;82;21232;-79
2021/06/25 08:28:30;;;;;;;8.43;4.75;;;;;;;31.78;46.26;100130.86;1707437;82;21471;-80
2021/06/25 08:30:57;;;;;;;7.83;4.15;;;;;;;31.74;46.09;100133.25;1750182;80;21813;-78
2021/06/25 08:33:23;;;;;;;10.85;4.50;;;;;;;31.68;45.42;100124.78;1710448;82;21293;-80
2021/06/25 08:35:50;;;;;;;9.25;4.40;;;;;;;31.67;46.47;100128.61;1716257;82;21112;-81
2021/06/25 08:38:17;;;;;;;11.35;4.50;;;;;;;31.78;45.80;100132.23;1714894;82;21112;-75
2021/06/25 08:40:55;;;;;;;10.32;4.33;;;;;;;31.86;46.31;100133.90;1705067;83;21087;-80
2021/06/25 08:43:25;;;;;;;10.08;4.20;;;;;;;32.03;47.12;100141.03;1750562;80;21950;-79
2021/06/25 08:45:52;;;;;;;9.08;4.12;;;;;;;32.13;45.04;100132.86;1714623;82;21024;-78
2021/06/25 08:48:18;;;;;;;12.07;4.40;;;;;;;32.19;45.21;100131.78;1693355;82;21009;-81
2021/06/25 08:50:52;;;;;;;11.40;4.15;;;;;;;32.26;44.43;100132.36;1725168;82;21660;-79
2021/06/25 08:53:19;;;;;;;11.50;4.42;;;;;;;32.23;44.66;100139.70;1742396;80;21091;-83
2021/06/25 08:55:47;;;;;;;11.65;4.35;;;;;;;32.21;44.13;100137.80;1729620;81;21794;-83
2021/06/25 08:58:16;;;;;;;5.62;4.10;;;;;;;32.22;45.03;100134.52;1751969;80;21005;-84
2021/06/25 09:00:43;;;;;;;8.88;4.15;;;;;;;32.28;44.92;100128.80;1719179;82;21087;-80
2021/06/25 09:03:22;;;;;;;8.08;3.60;;;;;;;32.35;44.67;100128.58;1712713;82;20965;-85
2021/06/25 09:05:49;;;;;;;8.18;4.12;;;;;;;32.46;44.71;100122.84;1698897;82;21058;-80
2021/06/25 09:08:27;;;;;;;10.45;4.08;;;;;;;32.60;44.92;100116.27;1716678;82;21842;-80
2021/06/25 09:10:58;;;;;;;15.72;4.15;;;;;;;32.72;45.10;100112.73;1747409;80;21008;-79
2021/06/25 09:13:38;;;;;;;7.78;4.00;;;;;;;32.87;44.08;100117.38;1724267;82;20997;-79
2021/06/25 09:16:21;;;;;;;10.98;4.05;;;;;;;32.95;44.25;100111.91;1706560;82;21483;-77
2021/06/25 09:19:16;;;;;;;10.05;3.83;;;;;;;33.09;44.79;100114.33;1709293;82;21511;-82
2021/06/25 09:21:59;;;;;;;7.35;4.20;;;;;;;33.26;44.37;100121.69;1715468;82;21847;-78
2021/06/25 09:24:27;;;;;;;6.97;4.08;;;;;;;33.37;43.46;100120.31;1719290;82;20996;-80
2021/06/25 09:27:02;;;;;;;6.60;3.85;;;;;;;33.47;43.70;100120.28;1687478;83;21083;-81
2021/06/25 09:29:34;;;;;;;11.08;4.58;;;;;;;33.52;42.32;100118.35;1698030;83;21162;-82
2021/06/25 09:32:04;;;;;;;10.28;4.28;;;;;;;33.45;42.19;100113.72;1743628;80;21043;-82
2021/06/25 09:34:45;;;;;;;10.15;4.20;;;;;;;33.49;43.54;100103.02;1728737;80;21809;-82
2021/06/25 09:37:13;;;;;;;9.93;3.90;;;;;;;33.63;42.83;100104.06;1732717;80;21136;-83
2021/06/25 09:39:43;;;;;;;11.97;4.22;;;;;;;33.67;42.74;100108.42;1748848;80;21166;-83
2021/06/25 09:42:19;;;;;;;8.18;3.90;;;;;;;33.59;42.34;100102.45;1739926;80;21033;-82
2021/06/25 09:45:07;;;;;;;11.05;4.28;;;;;;;33.58;42.69;100102.70;1714776;81;21107;-83
2021/06/25 09:47:44;;;;;;;8.30;4.45;;;;;;;33.69;43.51;100104.87;1715562;81;22858;-82
2021/06/25 09:50:22;;;;;;;10.95;4.00;;;;;;;33.74;41.93;100102.91;1695618;83;21038;-82
2021/06/25 09:52:57;;;;;;;8.25;4.33;;;;;;;33.83;43.44;100099.84;1722326;80;21087;-81
2021/06/25 09:55:31;;;;;;;11.10;4.50;;;;;;;34.00;42.39;100100.89;1712265;81;21533;-82
2021/06/25 10:03:56;;;;;;;11.70;4.08;;;;;;;34.33;40.18;100095.16;1714233;82;21055;-84
2021/06/25 10:06:30;;;;;;;9.33;4.37;;;;;;;34.32;40.94;100099.02;1714628;82;21051;-83
2021/06/25 10:08:57;;;;;;;14.33;4.53;;;;;;;34.43;41.27;100101.16;1748854;80;21494;-83
2021/06/25 10:11:29;;;;;;;9.65;3.87;;;;;;;34.45;39.84;100096.19;1748123;80;21181;-82
2021/06/25 10:13:58;;;;;;;7.85;3.60;;;;;;;34.38;41.01;100095.69;1725654;80;21800;-80
2021/06/25 10:16:24;;;;;;;11.38;3.92;;;;;;;34.30;40.20;100088.08;1736765;80;21126;-81
2021/06/25 10:18:57;;;;;;;7.40;3.90;;;;;;;34.33;40.18;100084.75;1745113;80;21031;-77
2021/06/25 10:21:31;;;;;;;10.48;4.15;;;;;;;34.39;39.93;100080.35;1715409;82;21067;-76
2021/06/25 10:24:00;;;;;;;9.55;3.83;;;;;;;34.53;41.05;100079.68;1743252;80;21373;-78
2021/06/25 10:26:27;;;;;;;8.38;3.80;;;;;;;34.63;39.33;100079.03;1743354;80;21887;-76
2021/06/25 10:28:55;;;;;;;11.73;3.92;;;;;;;34.52;38.78;100082.16;1714278;81;21035;-78
2021/06/25 10:31:23;;;;;;;7.03;3.75;;;;;;;34.51;40.31;100081.90;1746816;80;21055;-84
2021/06/25 10:33:52;;;;;;;8.85;3.92;;;;;;;34.61;39.86;100081.25;1718371;81;21691;-82
2021/06/25 10:36:22;;;;;;;8.95;3.80;;;;;;;34.72;39.69;100082.80;1714074;82;21126;-83
2021/06/25 10:38:49;;;;;;;10.88;3.52;;;;;;;34.82;39.01;100083.80;1715219;82;21962;-83
2021/06/25 10:41:18;;;;;;;8.35;3.50;;;;;;;34.82;39.68;100079.69;1715551;82;21681;-83
2021/06/25 10:43:54;;;;;;;12.05;3.70;;;;;;;34.97;39.47;100078.20;1716310;82;21158;-83
2021/06/25 10:46:37;;;;;;;6.20;3.55;;;;;;;35.19;39.43;100082.61;1694545;83;21107;-84
2021/06/25 10:49:10;;;;;;;6.75;3.40;;;;;;;35.33;38.52;100086.05;1698034;83;21463;-84
2021/06/25 10:51:40;;;;;;;9.10;3.42;;;;;;;35.47;39.57;100086.42;1686638;81;22562;-84
2021/06/25 10:54:17;;;;;;;7.30;3.22;;;;;;;35.73;39.63;100082.80;1716776;81;21025;-83
2021/06/25 10:56:52;;;;;;;5.22;3.47;;;;;;;36.01;38.74;100080.24;1716418;82;21095;-84
2021/06/25 10:59:27;;;;;;;9.35;3.77;;;;;;;36.23;37.91;100081.81;1717103;82;21084;-84
2021/06/25 11:02:02;;;;;;;7.25;3.12;;;;;;;36.40;36.37;100078.55;1750478;80;22220;-83
2021/06/25 11:04:47;;;;;;;10.98;3.45;;;;;;;36.53;36.04;100086.02;1714045;82;22282;-83
2021/06/25 11:07:43;;;;;;;8.58;3.37;;;;;;;36.64;36.02;100079.22;1693733;82;21100;-83
2021/06/25 11:10:09;;;;;;;7.40;3.60;;;;;;;36.61;34.58;100087.27;1707045;81;21081;-84
2021/06/25 11:12:38;;;;;;;8.08;3.20;;;;;;;36.48;35.27;100078.40;1741840;79;21277;-83
2021/06/25 11:15:10;;;;;;;4.42;2.77;;;;;;;36.56;35.83;100077.16;1747802;80;21040;-83
2021/06/25 11:17:58;;;;;;;10.50;2.95;;;;;;;36.83;36.61;100083.88;1710121;82;21836;-83
2021/06/25 11:20:38;;;;;;;8.28;2.98;;;;;;;36.91;34.47;100083.18;1716887;82;21534;-82
2021/06/25 11:23:11;;;;;;;9.25;3.20;;;;;;;36.98;35.21;100081.41;1718225;81;21558;-83
2021/06/25 11:26:01;;;;;;;6.85;3.55;;;;;;;36.96;33.80;100079.78;1743795;81;21620;-83
2021/06/25 11:28:37;;;;;;;11.08;3.77;;;;;;;36.83;34.92;100081.13;1735430;82;21043;-82
2021/06/25 11:31:22;;;;;;;9.88;3.52;;;;;;;36.76;35.15;100084.79;1737929;81;21819;-82
2021/06/25 11:33:56;;;;;;;8.95;3.40;;;;;;;36.51;34.60;100084.13;1748859;79;21466;-82
2021/06/25 11:36:52;;;;;;;7.20;3.25;;;;;;;36.26;35.59;100079.83;1724923;81;21262;-82
2021/06/25 11:39:35;;;;;;;8.13;3.40;;;;;;;36.26;36.78;100079.02;1746272;80;21055;-80
2021/06/25 11:42:22;;;;;;;7.67;3.60;;;;;;;36.17;35.68;100075.30;1715470;82;21659;-84
2021/06/25 11:44:50;;;;;;;9.68;3.22;;;;;;;35.90;36.19;100078.73;1698863;82;21807;-83